sensor_id;sensor_type;location;lat;lon;timestamp;P1;durP1;ratioP1;P2;durP2;ratioP2
6651;SDS011;3362;50.892;10.692;2023-03-01T00:01:40;15.77;;;7.33;;
6651;SDS011;3362;50.892;10.692;2023-03-01T00:04:07;18.30;;;6.50;;
6651;SDS011;3362;50.892;10.692;2023-03-01T00:06:33;13.90;;;6.77;;
6651;SDS011;3362;50.892;10.692;2023-03-01T00:08:59;16.93;;;7.13;;
6651;SDS011;3362;50.892;10.692;2023-03-01T00:11:26;15.60;;;7.43;;
6651;SDS011;3362;50.892;10.692;2023-03-01T00:13:53;13.57;;;6.23;;
6651;SDS011;3362;50.892;10.692;2023-03-01T00:16:21;12.40;;;6.87;;
6651;SDS011;3362;50.892;10.692;2023-03-01T00:18:48;12.00;;;7.07;;
6651;SDS011;3362;50.892;10.692;2023-03-01T00:21:15;13.43;;;6.47;;
6651;SDS011;3362;50.892;10.692;2023-03-01T00:23:42;15.13;;;7.50;;
6651;SDS011;3362;50.892;10.692;2023-03-01T00:26:09;13.33;;;7.80;;
6651;SDS011;3362;50.892;10.692;2023-03-01T00:28:35;9.90;;;6.03;;
6651;SDS011;3362;50.892;10.692;2023-03-01T00:31:04;14.23;;;7.53;;
6651;SDS011;3362;50.892;10.692;2023-03-01T00:33:31;15.63;;;7.27;;
6651;SDS011;3362;50.892;10.692;2023-03-01T00:35:58;12.13;;;7.20;;
6651;SDS011;3362;50.892;10.692;2023-03-01T00:38:25;12.43;;;6.53;;
6651;SDS011;3362;50.892;10.692;2023-03-01T00:40:51;12.40;;;6.60;;
6651;SDS011;3362;50.892;10.692;2023-03-01T00:43:17;21.37;;;6.80;;
6651;SDS011;3362;50.892;10.692;2023-03-01T00:45:43;12.23;;;7.30;;
6651;SDS011;3362;50.892;10.692;2023-03-01T00:48:09;15.37;;;7.00;;
6651;SDS011;3362;50.892;10.692;2023-03-01T00:50:36;15.20;;;7.40;;
6651;SDS011;3362;50.892;10.692;2023-03-01T00:53:03;17.17;;;7.43;;
6651;SDS011;3362;50.892;10.692;2023-03-01T00:55:30;17.80;;;7.33;;
6651;SDS011;3362;50.892;10.692;2023-03-01T00:57:57;12.63;;;6.33;;
6651;SDS011;3362;50.892;10.692;2023-03-01T01:00:23;13.43;;;6.97;;
6651;SDS011;3362;50.892;10.692;2023-03-01T01:02:51;16.60;;;8.10;;
6651;SDS011;3362;50.892;10.692;2023-03-01T01:05:17;14.10;;;6.33;;
6651;SDS011;3362;50.892;10.692;2023-03-01T01:07:45;12.70;;;6.87;;
6651;SDS011;3362;50.892;10.692;2023-03-01T01:10:13;13.13;;;7.40;;
6651;SDS011;3362;50.892;10.692;2023-03-01T01:12:41;13.87;;;6.67;;
6651;SDS011;3362;50.892;10.692;2023-03-01T01:15:08;13.73;;;6.20;;
6651;SDS011;3362;50.892;10.692;2023-03-01T01:17:37;19.77;;;6.00;;
6651;SDS011;3362;50.892;10.692;2023-03-01T01:20:03;10.27;;;5.23;;
6651;SDS011;3362;50.892;10.692;2023-03-01T01:22:30;15.03;;;7.43;;
6651;SDS011;3362;50.892;10.692;2023-03-01T01:24:56;14.43;;;7.33;;
6651;SDS011;3362;50.892;10.692;2023-03-01T01:27:23;17.20;;;7.27;;
6651;SDS011;3362;50.892;10.692;2023-03-01T01:29:50;17.77;;;5.70;;
6651;SDS011;3362;50.892;10.692;2023-03-01T01:32:18;15.47;;;6.03;;
6651;SDS011;3362;50.892;10.692;2023-03-01T01:34:44;12.60;;;6.27;;
6651;SDS011;3362;50.892;10.692;2023-03-01T01:37:11;16.47;;;6.67;;
6651;SDS011;3362;50.892;10.692;2023-03-01T01:39:37;14.27;;;6.47;;
6651;SDS011;3362;50.892;10.692;2023-03-01T01:42:03;15.17;;;6.73;;
6651;SDS011;3362;50.892;10.692;2023-03-01T01:44:33;13.23;;;7.63;;
6651;SDS011;3362;50.892;10.692;2023-03-01T01:47:00;20.17;;;7.47;;
6651;SDS011;3362;50.892;10.692;2023-03-01T01:49:31;13.07;;;7.00;;
6651;SDS011;3362;50.892;10.692;2023-03-01T01:52:04;12.77;;;6.93;;
6651;SDS011;3362;50.892;10.692;2023-03-01T01:54:34;12.57;;;6.27;;
6651;SDS011;3362;50.892;10.692;2023-03-01T01:57:10;14.60;;;6.63;;
6651;SDS011;3362;50.892;10.692;2023-03-01T01:59:38;13.73;;;5.83;;
6651;SDS011;3362;50.892;10.692;2023-03-01T02:02:07;9.50;;;5.27;;
6651;SDS011;3362;50.892;10.692;2023-03-01T02:04:33;13.60;;;6.10;;
6651;SDS011;3362;50.892;10.692;2023-03-01T02:07:01;10.73;;;5.47;;
6651;SDS011;3362;50.892;10.692;2023-03-01T02:09:28;13.00;;;6.30;;
6651;SDS011;3362;50.892;10.692;2023-03-01T02:11:55;9.40;;;5.03;;
6651;SDS011;3362;50.892;10.692;2023-03-01T02:14:21;17.40;;;6.40;;
6651;SDS011;3362;50.892;10.692;2023-03-01T02:16:49;12.10;;;6.07;;
6651;SDS011;3362;50.892;10.692;2023-03-01T02:19:18;15.43;;;6.63;;
6651;SDS011;3362;50.892;10.692;2023-03-01T02:21:48;10.47;;;6.00;;
6651;SDS011;3362;50.892;10.692;2023-03-01T02:24:17;16.20;;;6.50;;
6651;SDS011;3362;50.892;10.692;2023-03-01T02:26:50;11.97;;;5.27;;
6651;SDS011;3362;50.892;10.692;2023-03-01T02:29:19;11.03;;;5.43;;
6651;SDS011;3362;50.892;10.692;2023-03-01T02:31:45;15.00;;;6.73;;
6651;SDS011;3362;50.892;10.692;2023-03-01T02:34:13;15.53;;;6.23;;
6651;SDS011;3362;50.892;10.692;2023-03-01T02:36:41;11.47;;;5.43;;
6651;SDS011;3362;50.892;10.692;2023-03-01T02:39:09;15.90;;;6.20;;
6651;SDS011;3362;50.892;10.692;2023-03-01T02:41:39;17.10;;;6.70;;
6651;SDS011;3362;50.892;10.692;2023-03-01T02:44:07;13.10;;;6.23;;
6651;SDS011;3362;50.892;10.692;2023-03-01T02:46:41;9.70;;;5.80;;
6651;SDS011;3362;50.892;10.692;2023-03-01T02:49:16;13.67;;;6.27;;
6651;SDS011;3362;50.892;10.692;2023-03-01T02:51:45;12.90;;;5.83;;
6651;SDS011;3362;50.892;10.692;2023-03-01T02:54:16;10.47;;;5.43;;
6651;SDS011;3362;50.892;10.692;2023-03-01T02:56:44;14.97;;;6.23;;
6651;SDS011;3362;50.892;10.692;2023-03-01T02:59:13;9.20;;;5.47;;
6651;SDS011;3362;50.892;10.692;2023-03-01T03:01:40;9.57;;;5.70;;
6651;SDS011;3362;50.892;10.692;2023-03-01T03:04:07;10.00;;;6.10;;
6651;SDS011;3362;50.892;10.692;2023-03-01T03:06:34;9.83;;;5.50;;
6651;SDS011;3362;50.892;10.692;2023-03-01T03:09:01;15.00;;;5.83;;
6651;SDS011;3362;50.892;10.692;2023-03-01T03:11:27;11.70;;;6.40;;
6651;SDS011;3362;50.892;10.692;2023-03-01T03:13:53;10.40;;;5.67;;
6651;SDS011;3362;50.892;10.692;2023-03-01T03:16:20;12.27;;;6.03;;
6651;SDS011;3362;50.892;10.692;2023-03-01T03:18:48;9.17;;;5.00;;
6651;SDS011;3362;50.892;10.692;2023-03-01T03:21:14;12.57;;;5.53;;
6651;SDS011;3362;50.892;10.692;2023-03-01T03:23:41;9.17;;;5.20;;
6651;SDS011;3362;50.892;10.692;2023-03-01T03:26:07;23.43;;;7.53;;
6651;SDS011;3362;50.892;10.692;2023-03-01T03:28:34;16.33;;;6.37;;
6651;SDS011;3362;50.892;10.692;2023-03-01T03:31:05;9.60;;;5.83;;
6651;SDS011;3362;50.892;10.692;2023-03-01T03:33:31;10.60;;;5.77;;
6651;SDS011;3362;50.892;10.692;2023-03-01T03:35:59;12.07;;;5.20;;
6651;SDS011;3362;50.892;10.692;2023-03-01T03:38:25;13.43;;;6.90;;
6651;SDS011;3362;50.892;10.692;2023-03-01T03:40:52;13.40;;;6.43;;
6651;SDS011;3362;50.892;10.692;2023-03-01T03:43:19;8.67;;;5.73;;
6651;SDS011;3362;50.892;10.692;2023-03-01T03:45:46;10.10;;;5.17;;
6651;SDS011;3362;50.892;10.692;2023-03-01T03:48:12;11.07;;;6.30;;
6651;SDS011;3362;50.892;10.692;2023-03-01T03:50:38;11.70;;;6.23;;
6651;SDS011;3362;50.892;10.692;2023-03-01T03:53:07;11.63;;;5.33;;
6651;SDS011;3362;50.892;10.692;2023-03-01T03:55:34;13.57;;;5.83;;
6651;SDS011;3362;50.892;10.692;2023-03-01T03:58:04;16.07;;;5.47;;
6651;SDS011;3362;50.892;10.692;2023-03-01T04:00:32;9.37;;;5.00;;
6651;SDS011;3362;50.892;10.692;2023-03-01T04:02:58;13.40;;;6.50;;
6651;SDS011;3362;50.892;10.692;2023-03-01T04:05:24;12.27;;;6.40;;
6651;SDS011;3362;50.892;10.692;2023-03-01T04:07:51;11.60;;;6.73;;
6651;SDS011;3362;50.892;10.692;2023-03-01T04:10:27;15.20;;;5.30;;
6651;SDS011;3362;50.892;10.692;2023-03-01T04:12:54;9.97;;;6.23;;
6651;SDS011;3362;50.892;10.692;2023-03-01T04:15:22;10.77;;;5.50;;
6651;SDS011;3362;50.892;10.692;2023-03-01T04:17:49;11.63;;;5.63;;
6651;SDS011;3362;50.892;10.692;2023-03-01T04:20:16;13.93;;;6.30;;
6651;SDS011;3362;50.892;10.692;2023-03-01T04:22:43;14.53;;;6.30;;
6651;SDS011;3362;50.892;10.692;2023-03-01T04:25:11;10.23;;;6.07;;
6651;SDS011;3362;50.892;10.692;2023-03-01T04:27:40;14.30;;;5.03;;
6651;SDS011;3362;50.892;10.692;2023-03-01T04:30:07;12.37;;;6.27;;
6651;SDS011;3362;50.892;10.692;2023-03-01T04:32:33;16.97;;;7.10;;
6651;SDS011;3362;50.892;10.692;2023-03-01T04:34:59;11.73;;;6.03;;
6651;SDS011;3362;50.892;10.692;2023-03-01T04:37:26;12.73;;;5.37;;
6651;SDS011;3362;50.892;10.692;2023-03-01T04:39:52;12.50;;;5.80;;
6651;SDS011;3362;50.892;10.692;2023-03-01T04:42:18;10.30;;;5.10;;
6651;SDS011;3362;50.892;10.692;2023-03-01T04:44:46;14.57;;;6.80;;
6651;SDS011;3362;50.892;10.692;2023-03-01T04:47:12;15.20;;;5.83;;
6651;SDS011;3362;50.892;10.692;2023-03-01T04:49:39;11.00;;;5.80;;
6651;SDS011;3362;50.892;10.692;2023-03-01T04:52:05;10.60;;;5.07;;
6651;SDS011;3362;50.892;10.692;2023-03-01T04:54:32;9.57;;;5.40;;
6651;SDS011;3362;50.892;10.692;2023-03-01T04:56:58;11.80;;;5.43;;
6651;SDS011;3362;50.892;10.692;2023-03-01T04:59:24;10.13;;;5.03;;
6651;SDS011;3362;50.892;10.692;2023-03-01T05:01:52;14.80;;;6.70;;
6651;SDS011;3362;50.892;10.692;2023-03-01T05:04:20;16.20;;;6.03;;
6651;SDS011;3362;50.892;10.692;2023-03-01T05:06:46;15.37;;;6.87;;
6651;SDS011;3362;50.892;10.692;2023-03-01T05:09:12;11.13;;;6.37;;
6651;SDS011;3362;50.892;10.692;2023-03-01T05:11:39;11.70;;;6.63;;
6651;SDS011;3362;50.892;10.692;2023-03-01T05:14:05;12.90;;;7.03;;
6651;SDS011;3362;50.892;10.692;2023-03-01T05:16:32;14.43;;;5.80;;
6651;SDS011;3362;50.892;10.692;2023-03-01T05:19:00;13.43;;;6.37;;
6651;SDS011;3362;50.892;10.692;2023-03-01T05:21:31;13.13;;;5.80;;
6651;SDS011;3362;50.892;10.692;2023-03-01T05:23:58;22.07;;;6.97;;
6651;SDS011;3362;50.892;10.692;2023-03-01T05:26:25;9.87;;;4.77;;
6651;SDS011;3362;50.892;10.692;2023-03-01T05:28:53;13.53;;;6.20;;
6651;SDS011;3362;50.892;10.692;2023-03-01T05:31:23;15.30;;;5.73;;
6651;SDS011;3362;50.892;10.692;2023-03-01T05:33:49;13.27;;;6.13;;
6651;SDS011;3362;50.892;10.692;2023-03-01T05:36:17;17.23;;;6.13;;
6651;SDS011;3362;50.892;10.692;2023-03-01T05:38:44;12.37;;;5.77;;
6651;SDS011;3362;50.892;10.692;2023-03-01T05:41:13;12.30;;;7.17;;
6651;SDS011;3362;50.892;10.692;2023-03-01T05:43:40;15.60;;;6.53;;
6651;SDS011;3362;50.892;10.692;2023-03-01T05:46:08;15.90;;;6.83;;
6651;SDS011;3362;50.892;10.692;2023-03-01T05:48:37;13.40;;;6.50;;
6651;SDS011;3362;50.892;10.692;2023-03-01T05:51:04;10.73;;;5.80;;
6651;SDS011;3362;50.892;10.692;2023-03-01T05:53:32;9.83;;;5.60;;
6651;SDS011;3362;50.892;10.692;2023-03-01T05:55:58;12.67;;;5.47;;
6651;SDS011;3362;50.892;10.692;2023-03-01T05:58:25;13.93;;;6.67;;
6651;SDS011;3362;50.892;10.692;2023-03-01T06:00:51;12.47;;;5.00;;
6651;SDS011;3362;50.892;10.692;2023-03-01T06:03:18;21.43;;;7.43;;
6651;SDS011;3362;50.892;10.692;2023-03-01T06:05:44;15.03;;;6.77;;
6651;SDS011;3362;50.892;10.692;2023-03-01T06:08:10;17.97;;;9.20;;
6651;SDS011;3362;50.892;10.692;2023-03-01T06:10:38;23.30;;;10.03;;
6651;SDS011;3362;50.892;10.692;2023-03-01T06:13:04;27.83;;;10.07;;
6651;SDS011;3362;50.892;10.692;2023-03-01T06:15:31;31.00;;;12.53;;
6651;SDS011;3362;50.892;10.692;2023-03-01T06:17:57;23.80;;;11.77;;
6651;SDS011;3362;50.892;10.692;2023-03-01T06:20:24;23.57;;;11.07;;
6651;SDS011;3362;50.892;10.692;2023-03-01T06:22:50;19.63;;;8.23;;
6651;SDS011;3362;50.892;10.692;2023-03-01T06:25:18;16.90;;;7.53;;
6651;SDS011;3362;50.892;10.692;2023-03-01T06:27:46;20.67;;;6.67;;
6651;SDS011;3362;50.892;10.692;2023-03-01T06:30:14;12.27;;;7.03;;
6651;SDS011;3362;50.892;10.692;2023-03-01T06:32:41;15.13;;;6.13;;
6651;SDS011;3362;50.892;10.692;2023-03-01T06:35:08;15.00;;;7.03;;
6651;SDS011;3362;50.892;10.692;2023-03-01T06:37:34;11.73;;;5.23;;
6651;SDS011;3362;50.892;10.692;2023-03-01T06:40:01;12.03;;;6.23;;
6651;SDS011;3362;50.892;10.692;2023-03-01T06:42:31;14.77;;;6.90;;
6651;SDS011;3362;50.892;10.692;2023-03-01T06:44:59;12.27;;;5.80;;
6651;SDS011;3362;50.892;10.692;2023-03-01T06:47:25;17.27;;;6.37;;
6651;SDS011;3362;50.892;10.692;2023-03-01T06:49:51;14.50;;;6.27;;
6651;SDS011;3362;50.892;10.692;2023-03-01T06:52:18;16.07;;;7.90;;
6651;SDS011;3362;50.892;10.692;2023-03-01T06:54:44;16.67;;;7.20;;
6651;SDS011;3362;50.892;10.692;2023-03-01T06:57:10;18.57;;;8.77;;
6651;SDS011;3362;50.892;10.692;2023-03-01T06:59:36;17.90;;;8.50;;
6651;SDS011;3362;50.892;10.692;2023-03-01T07:02:04;14.50;;;7.33;;
6651;SDS011;3362;50.892;10.692;2023-03-01T07:04:30;19.20;;;9.63;;
6651;SDS011;3362;50.892;10.692;2023-03-01T07:06:56;16.67;;;8.27;;
6651;SDS011;3362;50.892;10.692;2023-03-01T07:09:22;22.27;;;9.23;;
6651;SDS011;3362;50.892;10.692;2023-03-01T07:11:49;12.60;;;7.70;;
6651;SDS011;3362;50.892;10.692;2023-03-01T07:14:15;20.03;;;9.50;;
6651;SDS011;3362;50.892;10.692;2023-03-01T07:16:41;20.07;;;8.00;;
6651;SDS011;3362;50.892;10.692;2023-03-01T07:19:09;16.03;;;8.13;;
6651;SDS011;3362;50.892;10.692;2023-03-01T07:21:35;19.90;;;9.07;;
6651;SDS011;3362;50.892;10.692;2023-03-01T07:24:03;16.10;;;9.07;;
6651;SDS011;3362;50.892;10.692;2023-03-01T07:26:29;12.87;;;7.40;;
6651;SDS011;3362;50.892;10.692;2023-03-01T07:28:58;17.30;;;9.27;;
6651;SDS011;3362;50.892;10.692;2023-03-01T07:31:24;17.37;;;8.80;;
6651;SDS011;3362;50.892;10.692;2023-03-01T07:33:52;30.90;;;11.13;;
6651;SDS011;3362;50.892;10.692;2023-03-01T07:36:20;29.87;;;9.23;;
6651;SDS011;3362;50.892;10.692;2023-03-01T07:38:46;34.13;;;11.13;;
6651;SDS011;3362;50.892;10.692;2023-03-01T07:41:12;30.07;;;11.57;;
6651;SDS011;3362;50.892;10.692;2023-03-01T07:43:39;33.77;;;12.67;;
6651;SDS011;3362;50.892;10.692;2023-03-01T07:46:05;23.27;;;10.43;;
6651;SDS011;3362;50.892;10.692;2023-03-01T07:48:32;21.80;;;10.23;;
6651;SDS011;3362;50.892;10.692;2023-03-01T07:50:58;17.27;;;9.23;;
6651;SDS011;3362;50.892;10.692;2023-03-01T07:53:26;18.70;;;9.70;;
6651;SDS011;3362;50.892;10.692;2023-03-01T07:55:59;19.93;;;9.20;;
6651;SDS011;3362;50.892;10.692;2023-03-01T07:58:26;25.77;;;10.40;;
6651;SDS011;3362;50.892;10.692;2023-03-01T08:00:52;24.10;;;11.20;;
6651;SDS011;3362;50.892;10.692;2023-03-01T08:03:18;27.00;;;11.43;;
6651;SDS011;3362;50.892;10.692;2023-03-01T08:05:44;22.53;;;10.30;;
6651;SDS011;3362;50.892;10.692;2023-03-01T08:08:10;21.67;;;10.23;;
6651;SDS011;3362;50.892;10.692;2023-03-01T08:10:38;24.00;;;10.43;;
6651;SDS011;3362;50.892;10.692;2023-03-01T08:13:04;19.67;;;9.47;;
6651;SDS011;3362;50.892;10.692;2023-03-01T08:15:30;19.97;;;10.40;;
6651;SDS011;3362;50.892;10.692;2023-03-01T08:17:57;18.07;;;9.50;;
6651;SDS011;3362;50.892;10.692;2023-03-01T08:20:23;18.90;;;8.87;;
6651;SDS011;3362;50.892;10.692;2023-03-01T08:22:49;21.37;;;9.33;;
6651;SDS011;3362;50.892;10.692;2023-03-01T08:25:15;25.73;;;9.47;;
6651;SDS011;3362;50.892;10.692;2023-03-01T08:27:43;24.30;;;9.87;;
6651;SDS011;3362;50.892;10.692;2023-03-01T08:30:10;17.20;;;9.03;;
6651;SDS011;3362;50.892;10.692;2023-03-01T08:32:36;15.17;;;7.97;;
6651;SDS011;3362;50.892;10.692;2023-03-01T08:35:03;15.57;;;8.87;;
6651;SDS011;3362;50.892;10.692;2023-03-01T08:37:30;18.03;;;9.63;;
6651;SDS011;3362;50.892;10.692;2023-03-01T08:39:57;19.63;;;9.17;;
6651;SDS011;3362;50.892;10.692;2023-03-01T08:42:24;19.50;;;10.00;;
6651;SDS011;3362;50.892;10.692;2023-03-01T08:44:51;19.20;;;8.97;;
6651;SDS011;3362;50.892;10.692;2023-03-01T08:47:17;26.47;;;8.07;;
6651;SDS011;3362;50.892;10.692;2023-03-01T08:49:43;16.47;;;8.77;;
6651;SDS011;3362;50.892;10.692;2023-03-01T08:52:10;16.30;;;8.27;;
6651;SDS011;3362;50.892;10.692;2023-03-01T08:54:36;23.20;;;9.03;;
6651;SDS011;3362;50.892;10.692;2023-03-01T08:57:02;19.20;;;10.03;;
6651;SDS011;3362;50.892;10.692;2023-03-01T08:59:28;20.50;;;10.40;;
6651;SDS011;3362;50.892;10.692;2023-03-01T09:01:56;25.23;;;10.37;;
6651;SDS011;3362;50.892;10.692;2023-03-01T09:04:23;25.50;;;11.03;;
6651;SDS011;3362;50.892;10.692;2023-03-01T09:06:49;28.13;;;11.33;;
6651;SDS011;3362;50.892;10.692;2023-03-01T09:09:16;19.90;;;9.50;;
6651;SDS011;3362;50.892;10.692;2023-03-01T09:11:42;20.33;;;9.70;;
6651;SDS011;3362;50.892;10.692;2023-03-01T09:14:11;17.37;;;9.10;;
6651;SDS011;3362;50.892;10.692;2023-03-01T09:16:37;18.00;;;8.23;;
6651;SDS011;3362;50.892;10.692;2023-03-01T09:19:06;18.57;;;8.03;;
6651;SDS011;3362;50.892;10.692;2023-03-01T09:21:32;18.70;;;9.73;;
6651;SDS011;3362;50.892;10.692;2023-03-01T09:23:58;16.50;;;8.90;;
6651;SDS011;3362;50.892;10.692;2023-03-01T09:26:24;15.27;;;8.40;;
6651;SDS011;3362;50.892;10.692;2023-03-01T09:28:51;19.87;;;9.23;;
6651;SDS011;3362;50.892;10.692;2023-03-01T09:31:19;18.02;;;9.07;;
6651;SDS011;3362;50.892;10.692;2023-03-01T09:33:46;16.50;;;8.37;;
6651;SDS011;3362;50.892;10.692;2023-03-01T09:36:14;22.95;;;9.65;;
6651;SDS011;3362;50.892;10.692;2023-03-01T09:38:41;16.43;;;9.10;;
6651;SDS011;3362;50.892;10.692;2023-03-01T09:41:09;20.45;;;9.02;;
6651;SDS011;3362;50.892;10.692;2023-03-01T09:43:37;14.23;;;8.13;;
6651;SDS011;3362;50.892;10.692;2023-03-01T09:46:08;20.45;;;9.88;;
6651;SDS011;3362;50.892;10.692;2023-03-01T09:48:37;16.13;;;8.80;;
6651;SDS011;3362;50.892;10.692;2023-03-01T09:51:05;16.70;;;8.88;;
6651;SDS011;3362;50.892;10.692;2023-03-01T09:53:35;17.23;;;7.50;;
6651;SDS011;3362;50.892;10.692;2023-03-01T09:56:02;16.42;;;7.47;;
6651;SDS011;3362;50.892;10.692;2023-03-01T09:58:38;17.63;;;8.23;;
6651;SDS011;3362;50.892;10.692;2023-03-01T10:01:12;17.88;;;7.90;;
6651;SDS011;3362;50.892;10.692;2023-03-01T10:03:42;16.30;;;8.38;;
6651;SDS011;3362;50.892;10.692;2023-03-01T10:06:11;13.52;;;7.30;;
6651;SDS011;3362;50.892;10.692;2023-03-01T10:08:42;17.33;;;8.18;;
6651;SDS011;3362;50.892;10.692;2023-03-01T10:11:16;18.15;;;8.25;;
6651;SDS011;3362;50.892;10.692;2023-03-01T10:13:45;17.52;;;8.63;;
6651;SDS011;3362;50.892;10.692;2023-03-01T10:16:14;13.98;;;8.15;;
6651;SDS011;3362;50.892;10.692;2023-03-01T10:18:42;16.00;;;8.18;;
6651;SDS011;3362;50.892;10.692;2023-03-01T10:21:12;16.80;;;8.27;;
6651;SDS011;3362;50.892;10.692;2023-03-01T10:23:39;19.52;;;8.23;;
6651;SDS011;3362;50.892;10.692;2023-03-01T10:26:15;15.10;;;7.22;;
6651;SDS011;3362;50.892;10.692;2023-03-01T10:28:45;13.85;;;7.85;;
6651;SDS011;3362;50.892;10.692;2023-03-01T10:31:13;15.73;;;7.40;;
6651;SDS011;3362;50.892;10.692;2023-03-01T10:33:40;20.42;;;7.55;;
6651;SDS011;3362;50.892;10.692;2023-03-01T10:36:07;16.10;;;8.05;;
6651;SDS011;3362;50.892;10.692;2023-03-01T10:38:47;15.63;;;9.07;;
6651;SDS011;3362;50.892;10.692;2023-03-01T10:41:15;19.30;;;8.07;;
6651;SDS011;3362;50.892;10.692;2023-03-01T10:43:43;15.02;;;7.82;;
6651;SDS011;3362;50.892;10.692;2023-03-01T10:46:21;16.55;;;8.63;;
6651;SDS011;3362;50.892;10.692;2023-03-01T10:48:51;17.75;;;7.38;;
6651;SDS011;3362;50.892;10.692;2023-03-01T10:51:31;14.90;;;7.97;;
6651;SDS011;3362;50.892;10.692;2023-03-01T10:53:58;19.77;;;8.73;;
6651;SDS011;3362;50.892;10.692;2023-03-01T10:56:25;20.05;;;8.23;;
6651;SDS011;3362;50.892;10.692;2023-03-01T10:58:58;20.92;;;9.77;;
6651;SDS011;3362;50.892;10.692;2023-03-01T11:01:25;30.67;;;12.63;;
6651;SDS011;3362;50.892;10.692;2023-03-01T11:04:03;37.30;;;13.30;;
6651;SDS011;3362;50.892;10.692;2023-03-01T11:06:35;33.53;;;14.02;;
6651;SDS011;3362;50.892;10.692;2023-03-01T11:09:13;29.63;;;11.25;;
6651;SDS011;3362;50.892;10.692;2023-03-01T11:11:41;25.77;;;10.27;;
6651;SDS011;3362;50.892;10.692;2023-03-01T11:14:07;14.18;;;8.25;;
6651;SDS011;3362;50.892;10.692;2023-03-01T11:16:39;15.43;;;8.43;;
6651;SDS011;3362;50.892;10.692;2023-03-01T11:19:19;23.75;;;10.93;;
6651;SDS011;3362;50.892;10.692;2023-03-01T11:21:54;23.15;;;9.48;;
6651;SDS011;3362;50.892;10.692;2023-03-01T11:24:22;18.45;;;8.18;;
6651;SDS011;3362;50.892;10.692;2023-03-01T11:26:52;14.70;;;7.38;;
6651;SDS011;3362;50.892;10.692;2023-03-01T11:29:21;12.15;;;6.50;;
6651;SDS011;3362;50.892;10.692;2023-03-01T11:31:52;15.93;;;7.60;;
6651;SDS011;3362;50.892;10.692;2023-03-01T11:34:19;24.75;;;8.45;;
6651;SDS011;3362;50.892;10.692;2023-03-01T11:36:48;21.10;;;8.52;;
6651;SDS011;3362;50.892;10.692;2023-03-01T11:39:20;19.42;;;9.93;;
6651;SDS011;3362;50.892;10.692;2023-03-01T12:40:23;11.98;;;7.57;;
6651;SDS011;3362;50.892;10.692;2023-03-01T12:42:57;12.77;;;8.07;;
6651;SDS011;3362;50.892;10.692;2023-03-01T12:45:37;11.00;;;7.70;;
6651;SDS011;3362;50.892;10.692;2023-03-01T13:00:22;14.90;;;8.93;;
6651;SDS011;3362;50.892;10.692;2023-03-01T13:02:54;12.93;;;7.95;;
6651;SDS011;3362;50.892;10.692;2023-03-01T13:05:24;17.23;;;8.80;;
6651;SDS011;3362;50.892;10.692;2023-03-01T13:07:53;12.27;;;7.57;;
6651;SDS011;3362;50.892;10.692;2023-03-01T13:10:23;13.88;;;8.20;;
6651;SDS011;3362;50.892;10.692;2023-03-01T13:12:52;10.73;;;7.75;;
6651;SDS011;3362;50.892;10.692;2023-03-01T13:15:31;16.08;;;9.32;;
6651;SDS011;3362;50.892;10.692;2023-03-01T14:40:55;10.10;;;6.85;;
6651;SDS011;3362;50.892;10.692;2023-03-01T14:43:22;13.85;;;8.05;;
6651;SDS011;3362;50.892;10.692;2023-03-01T14:45:49;12.27;;;7.55;;
6651;SDS011;3362;50.892;10.692;2023-03-01T14:48:16;12.60;;;7.38;;
6651;SDS011;3362;50.892;10.692;2023-03-01T14:50:43;14.80;;;8.07;;
6651;SDS011;3362;50.892;10.692;2023-03-01T14:53:14;10.95;;;7.25;;
6651;SDS011;3362;50.892;10.692;2023-03-01T14:55:41;12.18;;;7.90;;
6651;SDS011;3362;50.892;10.692;2023-03-01T14:58:11;11.35;;;8.35;;
6651;SDS011;3362;50.892;10.692;2023-03-01T15:00:38;12.07;;;7.82;;
6651;SDS011;3362;50.892;10.692;2023-03-01T15:03:11;10.80;;;7.60;;
6651;SDS011;3362;50.892;10.692;2023-03-01T15:05:38;11.73;;;7.85;;
6651;SDS011;3362;50.892;10.692;2023-03-01T15:08:05;10.70;;;7.75;;
6651;SDS011;3362;50.892;10.692;2023-03-01T15:10:32;13.52;;;8.90;;
6651;SDS011;3362;50.892;10.692;2023-03-01T15:13:10;15.38;;;8.93;;
6651;SDS011;3362;50.892;10.692;2023-03-01T15:15:38;15.80;;;9.23;;
6651;SDS011;3362;50.892;10.692;2023-03-01T15:18:06;13.55;;;8.77;;
6651;SDS011;3362;50.892;10.692;2023-03-01T15:20:39;14.45;;;8.52;;
6651;SDS011;3362;50.892;10.692;2023-03-01T15:23:05;14.40;;;8.30;;
6651;SDS011;3362;50.892;10.692;2023-03-01T15:25:32;15.10;;;8.48;;
6651;SDS011;3362;50.892;10.692;2023-03-01T15:27:59;13.13;;;9.10;;
6651;SDS011;3362;50.892;10.692;2023-03-01T15:30:28;12.98;;;8.25;;
6651;SDS011;3362;50.892;10.692;2023-03-01T15:35:59;15.70;;;8.68;;
6651;SDS011;3362;50.892;10.692;2023-03-01T16:32:09;14.27;;;8.23;;
6651;SDS011;3362;50.892;10.692;2023-03-01T16:34:35;13.20;;;7.72;;
6651;SDS011;3362;50.892;10.692;2023-03-01T16:37:01;15.20;;;8.43;;
6651;SDS011;3362;50.892;10.692;2023-03-01T16:39:28;20.00;;;9.45;;
6651;SDS011;3362;50.892;10.692;2023-03-01T16:41:54;21.15;;;8.40;;
6651;SDS011;3362;50.892;10.692;2023-03-01T16:44:20;13.90;;;7.97;;
6651;SDS011;3362;50.892;10.692;2023-03-01T16:46:47;16.60;;;8.18;;
6651;SDS011;3362;50.892;10.692;2023-03-01T16:49:14;16.98;;;8.88;;
6651;SDS011;3362;50.892;10.692;2023-03-01T16:51:40;22.63;;;11.18;;
6651;SDS011;3362;50.892;10.692;2023-03-01T16:54:06;22.30;;;10.27;;
6651;SDS011;3362;50.892;10.692;2023-03-01T16:56:33;23.35;;;10.45;;
6651;SDS011;3362;50.892;10.692;2023-03-01T16:59:02;20.33;;;10.13;;
6651;SDS011;3362;50.892;10.692;2023-03-01T17:01:28;18.85;;;9.50;;
6651;SDS011;3362;50.892;10.692;2023-03-01T17:04:02;24.27;;;10.95;;
6651;SDS011;3362;50.892;10.692;2023-03-01T17:06:30;23.08;;;10.27;;
6651;SDS011;3362;50.892;10.692;2023-03-01T17:08:57;26.02;;;12.15;;
6651;SDS011;3362;50.892;10.692;2023-03-01T17:11:24;29.02;;;15.10;;
6651;SDS011;3362;50.892;10.692;2023-03-01T17:13:51;29.80;;;14.00;;
6651;SDS011;3362;50.892;10.692;2023-03-01T17:16:17;24.20;;;13.13;;
6651;SDS011;3362;50.892;10.692;2023-03-01T17:18:44;26.02;;;13.50;;
6651;SDS011;3362;50.892;10.692;2023-03-01T17:21:11;29.88;;;13.90;;
6651;SDS011;3362;50.892;10.692;2023-03-01T17:23:40;27.98;;;14.93;;
6651;SDS011;3362;50.892;10.692;2023-03-01T17:26:06;24.13;;;12.63;;
6651;SDS011;3362;50.892;10.692;2023-03-01T17:28:33;20.02;;;10.88;;
6651;SDS011;3362;50.892;10.692;2023-03-01T17:31:00;26.35;;;9.32;;
6651;SDS011;3362;50.892;10.692;2023-03-01T17:33:27;28.13;;;10.32;;
6651;SDS011;3362;50.892;10.692;2023-03-01T17:35:54;18.45;;;9.30;;
6651;SDS011;3362;50.892;10.692;2023-03-01T17:38:21;21.35;;;8.82;;
6651;SDS011;3362;50.892;10.692;2023-03-01T17:40:49;21.55;;;9.13;;
6651;SDS011;3362;50.892;10.692;2023-03-01T17:43:15;15.98;;;8.38;;
6651;SDS011;3362;50.892;10.692;2023-03-01T17:45:42;22.08;;;8.40;;
6651;SDS011;3362;50.892;10.692;2023-03-01T17:48:12;16.15;;;8.15;;
6651;SDS011;3362;50.892;10.692;2023-03-01T17:50:39;18.42;;;8.75;;
6651;SDS011;3362;50.892;10.692;2023-03-01T17:53:05;17.85;;;8.32;;
6651;SDS011;3362;50.892;10.692;2023-03-01T17:55:33;19.48;;;8.93;;
6651;SDS011;3362;50.892;10.692;2023-03-01T17:58:01;18.65;;;9.45;;
6651;SDS011;3362;50.892;10.692;2023-03-01T18:00:28;15.65;;;7.80;;
6651;SDS011;3362;50.892;10.692;2023-03-01T18:02:54;18.90;;;10.00;;
6651;SDS011;3362;50.892;10.692;2023-03-01T18:05:20;18.42;;;8.82;;
6651;SDS011;3362;50.892;10.692;2023-03-01T18:07:46;20.80;;;9.32;;
6651;SDS011;3362;50.892;10.692;2023-03-01T18:10:12;20.42;;;9.68;;
6651;SDS011;3362;50.892;10.692;2023-03-01T18:12:39;22.08;;;10.25;;
6651;SDS011;3362;50.892;10.692;2023-03-01T18:15:07;20.65;;;9.63;;
6651;SDS011;3362;50.892;10.692;2023-03-01T18:17:33;23.55;;;10.02;;
6651;SDS011;3362;50.892;10.692;2023-03-01T18:19:59;17.25;;;8.95;;